Time;durP1;ratioP1;P1;durP2;ratioP2;P2;SDS_P1;SDS_P2;PMS_P1;PMS_P2;Temp;Humidity;BMP_temperature;BMP_pressure;BME280_temperature;BME280_humidity;BME280_pressure;Samples;Min_cycle;Max_cycle;Signal;HPM_P1;HPM_P2
2022/07/25 00:02:16;;;;;;;10.80;9.70;;;;;;;20.86;89.19;101019.38;107582;1244;72218;-73
2022/07/25 00:04:45;;;;;;;10.50;9.40;;;;;;;20.81;88.97;101022.80;107752;1247;60463;-72
2022/07/25 00:07:15;;;;;;;10.90;9.20;;;;;;;20.74;89.20;101017.29;107744;1244;63507;-72
2022/07/25 00:09:44;;;;;;;10.40;9.00;;;;;;;20.76;88.19;101021.46;107739;1244;62752;-72
2022/07/25 00:12:13;;;;;;;10.20;8.80;;;;;;;20.74;87.55;101020.92;107717;1244;58948;-73
2022/07/25 00:14:42;;;;;;;10.00;8.30;;;;;;;20.76;86.58;101017.06;107700;1245;62921;-72
2022/07/25 00:17:11;;;;;;;9.00;8.10;;;;;;;20.72;85.04;101014.07;107606;1244;70619;-72
2022/07/25 00:19:40;;;;;;;9.80;8.40;;;;;;;20.74;84.88;101022.33;107533;1247;72076;-72
2022/07/25 00:22:09;;;;;;;10.00;8.40;;;;;;;20.73;83.91;101021.96;107468;1244;63711;-73
2022/07/25 00:24:38;;;;;;;8.80;7.80;;;;;;;20.71;83.04;101028.23;107615;1244;63142;-74
2022/07/25 00:27:08;;;;;;;9.80;7.50;;;;;;;20.72;82.51;101029.10;107681;1244;60941;-70
2022/07/25 00:29:37;;;;;;;8.40;7.40;;;;;;;20.69;81.51;101034.08;107492;1245;65433;-71
2022/07/25 00:32:06;;;;;;;8.40;7.30;;;;;;;20.65;81.22;101039.80;107511;1243;72018;-73
2022/07/25 00:34:35;;;;;;;11.30;7.20;;;;;;;20.62;81.23;101041.77;107550;1244;61131;-72
2022/07/25 00:37:04;;;;;;;10.20;7.60;;;;;;;20.56;80.95;101042.20;107477;1244;63141;-74
2022/07/25 00:39:33;;;;;;;10.20;7.70;;;;;;;20.50;81.08;101043.20;107574;1244;59609;-72
2022/07/25 00:42:04;;;;;;;7.00;6.30;;;;;;;20.50;80.64;101045.33;107557;1244;60962;-72
2022/07/25 00:44:33;;;;;;;7.10;6.40;;;;;;;20.49;80.34;101047.45;107635;1244;75018;-74
2022/07/25 00:47:03;;;;;;;8.60;6.60;;;;;;;20.45;80.43;101052.75;107515;1244;70913;-72
2022/07/25 00:49:32;;;;;;;8.00;6.30;;;;;;;20.43;79.77;101049.64;107305;1244;70948;-77
2022/07/25 00:52:01;;;;;;;7.60;6.30;;;;;;;20.44;78.92;101050.05;107533;1244;73766;-71
2022/07/25 00:54:30;;;;;;;6.90;5.60;;;;;;;20.35;78.58;101050.08;107604;1244;62728;-72
2022/07/25 00:56:58;;;;;;;9.00;6.30;;;;;;;20.34;77.83;101050.58;107391;1247;60944;-71
2022/07/25 00:59:29;;;;;;;7.70;6.10;;;;;;;20.32;77.23;101046.56;107634;1244;63384;-73
2022/07/25 01:01:58;;;;;;;6.50;5.50;;;;;;;20.30;77.16;101044.84;107607;1247;61461;-74
2022/07/25 01:04:31;;;;;;;;;;;;;;;20.22;77.24;101049.25;108861;1244;69009;-71
2022/07/25 01:07:00;;;;;;;8.40;5.90;;;;;;;20.13;77.03;101044.77;109332;1244;74728;-73
2022/07/25 01:09:30;;;;;;;8.40;6.00;;;;;;;20.12;76.49;101044.30;107863;1245;59605;-74
2022/07/25 01:11:59;;;;;;;10.60;6.50;;;;;;;20.11;76.67;101042.16;107616;1245;60490;-73
2022/07/25 01:14:27;;;;;;;6.70;5.70;;;;;;;20.13;75.76;101040.82;107633;1244;65286;-73
2022/07/25 01:16:56;;;;;;;6.30;5.60;;;;;;;20.14;75.56;101046.46;107174;1245;583887;-74
2022/07/25 01:19:25;;;;;;;7.90;5.40;;;;;;;20.16;75.30;101046.23;107582;1247;61018;-73
2022/07/25 01:21:55;;;;;;;7.90;5.60;;;;;;;20.18;75.04;101051.99;107819;1244;63208;-74
2022/07/25 01:24:24;;;;;;;8.20;5.80;;;;;;;20.12;74.97;101051.42;107762;1244;62114;-72
2022/07/25 01:26:52;;;;;;;12.50;6.00;;;;;;;20.02;75.16;101054.38;107755;1244;60848;-75
2022/07/25 01:29:21;;;;;;;6.20;5.20;;;;;;;19.98;75.32;101056.59;107764;1244;64325;-73
2022/07/25 01:31:50;;;;;;;6.60;5.40;;;;;;;20.01;74.89;101051.48;107848;1245;61501;-73
2022/07/25 01:34:19;;;;;;;8.90;5.50;;;;;;;20.00;74.52;101051.77;107818;1247;60012;-74
2022/07/25 01:36:48;;;;;;;6.20;5.10;;;;;;;19.96;74.33;101052.65;107887;1244;62466;-74
2022/07/25 01:39:17;;;;;;;6.40;5.20;;;;;;;19.90;74.58;101054.45;107795;1244;59615;-73
2022/07/25 01:41:46;;;;;;;8.00;5.30;;;;;;;19.88;74.64;101053.09;107719;1244;60943;-72
2022/07/25 01:44:16;;;;;;;7.90;5.20;;;;;;;19.83;74.64;101057.98;107671;1244;73796;-72
2022/07/25 01:46:44;;;;;;;7.10;5.00;;;;;;;19.82;74.40;101057.42;107535;1245;73519;-72
2022/07/25 01:49:13;;;;;;;5.40;4.40;;;;;;;19.76;74.61;101054.50;107662;1244;71313;-72
2022/07/25 01:51:42;;;;;;;6.30;5.00;;;;;;;19.70;74.35;101055.84;107598;1244;74796;-74
2022/07/25 01:54:11;;;;;;;7.40;5.00;;;;;;;19.69;75.04;101061.11;107643;1244;61936;-75
2022/07/25 01:56:44;;;;;;;6.20;4.80;;;;;;;19.68;74.28;101063.52;107781;1244;62149;-73
2022/07/25 01:59:15;;;;;;;5.70;4.50;;;;;;;19.67;74.32;101061.65;107772;1244;74270;-72
2022/07/25 02:01:44;;;;;;;6.20;5.30;;;;;;;19.67;73.98;101067.65;107794;1244;61426;-75
2022/07/25 02:04:13;;;;;;;5.30;4.80;;;;;;;19.69;74.23;101069.05;107730;1245;70389;-76
2022/07/25 02:06:42;;;;;;;6.80;4.60;;;;;;;19.70;74.00;101066.48;107793;1244;63988;-73
2022/07/25 02:09:11;;;;;;;8.00;4.90;;;;;;;19.67;73.96;101071.73;107625;1244;59621;-74
2022/07/25 02:11:40;;;;;;;6.00;4.70;;;;;;;19.65;74.10;101072.48;107609;1244;59116;-73
2022/07/25 02:14:09;;;;;;;6.10;5.00;;;;;;;19.64;74.09;101070.69;107859;1244;62995;-72
2022/07/25 02:16:38;;;;;;;5.70;5.10;;;;;;;19.60;74.61;101072.12;107864;1244;72029;-73
2022/07/25 02:19:07;;;;;;;6.30;5.50;;;;;;;19.54;75.67;101074.31;107763;1244;69111;-72
2022/07/25 02:21:36;;;;;;;7.30;5.00;;;;;;;19.54;75.55;101079.24;107741;1246;62973;-73
2022/07/25 02:24:06;;;;;;;6.60;4.90;;;;;;;19.49;74.93;101080.67;107807;1244;62780;-77
2022/07/25 02:26:35;;;;;;;7.20;5.30;;;;;;;19.42;75.00;101079.35;107771;1244;59484;-73
2022/07/25 02:29:04;;;;;;;8.60;5.40;;;;;;;19.32;75.50;101079.45;107842;1244;62950;-74
2022/07/25 02:31:33;;;;;;;6.40;5.60;;;;;;;19.24;76.06;101085.23;107882;1244;61993;-77
2022/07/25 02:34:03;;;;;;;7.30;5.50;;;;;;;19.18;75.78;101086.55;107854;1243;60077;-73
2022/07/25 02:36:32;;;;;;;6.70;5.60;;;;;;;19.09;76.31;101083.64;107799;1244;63305;-77
2022/07/25 02:39:01;;;;;;;9.70;5.90;;;;;;;18.99;77.28;101087.39;107755;1244;59593;-77
2022/07/25 02:41:30;;;;;;;7.40;5.60;;;;;;;18.95;77.20;101088.33;107931;1244;59548;-72
2022/07/25 02:44:00;;;;;;;7.60;5.40;;;;;;;18.91;76.74;101089.73;108153;1244;63589;-74
2022/07/25 02:46:29;;;;;;;7.70;5.30;;;;;;;18.83;77.08;101093.63;108260;1244;71637;-73
2022/07/25 02:48:58;;;;;;;6.10;5.40;;;;;;;18.75;77.05;101091.06;108039;1244;69386;-74
2022/07/25 02:51:28;;;;;;;7.80;5.30;;;;;;;18.70;77.07;101092.48;107890;1245;63160;-75
2022/07/25 02:53:57;;;;;;;7.10;5.70;;;;;;;18.60;78.43;101095.94;107968;1244;61197;-73
2022/07/25 02:56:26;;;;;;;7.40;6.20;;;;;;;18.60;77.76;101097.34;107947;1244;59647;-72
2022/07/25 02:58:58;;;;;;;8.30;5.50;;;;;;;18.54;78.35;101097.17;108171;1244;74187;-74
2022/07/25 03:01:27;;;;;;;7.80;6.10;;;;;;;18.49;78.36;101096.69;108138;1244;73678;-73
2022/07/25 03:03:56;;;;;;;9.10;5.90;;;;;;;18.45;78.06;101096.89;107876;1244;69368;-73
2022/07/25 03:06:25;;;;;;;11.60;6.40;;;;;;;18.45;78.28;101098.99;107874;1244;63010;-74
2022/07/25 03:08:54;;;;;;;7.50;5.30;;;;;;;18.39;77.97;101095.00;107813;1244;60437;-74
2022/07/25 03:11:23;;;;;;;7.40;5.40;;;;;;;18.39;77.38;101100.34;107903;1244;60821;-75
2022/07/25 03:13:52;;;;;;;7.80;5.60;;;;;;;18.37;77.01;101101.90;107671;1244;74469;-75
2022/07/25 03:16:20;;;;;;;8.20;5.00;;;;;;;18.34;77.00;101103.70;107788;1244;71004;-74
2022/07/25 03:18:49;;;;;;;6.90;5.60;;;;;;;18.30;77.10;101108.95;107865;1244;60157;-74
2022/07/25 03:21:18;;;;;;;8.50;5.60;;;;;;;18.28;76.89;101109.14;107874;1244;63234;-75
2022/07/25 03:23:47;;;;;;;7.00;5.10;;;;;;;18.28;76.73;101107.42;107797;1244;59601;-73
2022/07/25 03:26:20;;;;;;;;;;;;;;;18.27;77.13;101117.20;107929;1244;59574;-74
2022/07/25 03:28:48;;;;;;;7.20;4.70;;;;;;;18.26;76.72;101116.37;107723;1244;63760;-75
2022/07/25 03:31:17;;;;;;;8.90;5.10;;;;;;;18.30;76.41;101118.67;107797;1244;61449;-75
2022/07/25 03:33:46;;;;;;;7.50;5.00;;;;;;;18.32;76.19;101117.60;107894;1244;61883;-73
2022/07/25 03:36:15;;;;;;;6.90;4.80;;;;;;;18.32;76.50;101116.60;107769;1244;66068;-75
2022/07/25 03:38:44;;;;;;;7.80;5.40;;;;;;;18.38;75.99;101116.52;107704;1244;59641;-74
2022/07/25 03:41:13;;;;;;;9.20;5.00;;;;;;;18.42;75.48;101114.67;109748;1244;58221;-74
2022/07/25 03:43:43;;;;;;;5.60;4.80;;;;;;;18.48;74.96;101114.80;107640;1245;63012;-74
2022/07/25 03:46:12;;;;;;;7.00;3.90;;;;;;;18.54;74.29;101116.61;107452;1247;60785;-76
2022/07/25 03:48:41;;;;;;;6.00;4.80;;;;;;;18.60;74.01;101114.97;107695;1244;69835;-74
2022/07/25 03:51:10;;;;;;;5.00;4.30;;;;;;;18.60;73.78;101111.86;107663;1243;73685;-73
2022/07/25 03:56:35;;;;;;;6.50;4.20;;;;;;;18.69;73.43;101117.51;107612;1244;59883;-73
2022/07/25 03:59:15;;;;;;;5.40;4.10;;;;;;;18.71;73.50;101115.84;107662;1244;76002;-72
2022/07/25 04:01:45;;;;;;;9.80;4.50;;;;;;;18.74;73.08;101117.99;107604;1244;71885;-75
2022/07/25 04:04:15;;;;;;;7.10;4.70;;;;;;;18.75;73.17;101119.28;107808;1244;59084;-73
2022/07/25 04:06:45;;;;;;;5.10;4.10;;;;;;;18.79;72.88;101117.87;107662;1244;73918;-72
2022/07/25 04:09:14;;;;;;;6.10;4.60;;;;;;;18.84;72.46;101117.78;107631;1247;59523;-73
2022/07/25 04:11:43;;;;;;;6.30;4.50;;;;;;;18.87;72.89;101121.67;107697;1244;59621;-73
2022/07/25 04:14:13;;;;;;;7.70;4.60;;;;;;;18.91;72.94;101121.61;107549;1245;63788;-76
2022/07/25 04:16:42;;;;;;;6.10;4.70;;;;;;;18.96;72.93;101127.58;107638;1244;72452;-75
2022/07/25 04:19:11;;;;;;;8.40;5.10;;;;;;;18.99;72.72;101128.48;107902;1244;70471;-75
2022/07/25 04:21:40;;;;;;;6.20;4.90;;;;;;;19.03;73.05;101131.09;107919;1244;63649;-75
2022/07/25 04:24:09;;;;;;;7.20;5.30;;;;;;;19.13;72.46;101132.13;108036;1244;60336;-75
2022/07/25 04:26:37;;;;;;;7.90;4.80;;;;;;;19.17;71.87;101134.79;107956;1244;61767;-77
2022/07/25 04:29:06;;;;;;;7.80;4.80;;;;;;;19.19;71.66;101134.66;107785;1244;63637;-79
2022/07/25 04:31:35;;;;;;;6.30;4.70;;;;;;;19.20;71.76;101136.63;107783;1244;60853;-77
2022/07/25 04:34:04;;;;;;;7.70;4.60;;;;;;;19.22;71.68;101135.91;107663;1244;70332;-76
2022/07/25 04:36:33;;;;;;;8.20;4.50;;;;;;;19.26;71.37;101139.57;107814;1244;63881;-74
2022/07/25 04:39:03;;;;;;;6.40;4.70;;;;;;;19.27;70.74;101136.93;107981;1244;60127;-74
2022/07/25 04:41:31;;;;;;;5.20;4.00;;;;;;;19.27;70.70;101138.89;107774;1244;60534;-74
2022/07/25 04:44:00;;;;;;;5.20;4.50;;;;;;;19.29;70.78;101133.38;107790;1244;64706;-77
2022/07/25 04:46:29;;;;;;;5.70;4.20;;;;;;;19.34;70.27;101132.35;107800;1245;72016;-76
2022/07/25 04:48:58;;;;;;;6.20;4.30;;;;;;;19.35;69.85;101125.25;107789;1244;59652;-75
2022/07/25 04:51:27;;;;;;;4.80;4.00;;;;;;;19.36;70.02;101121.59;107792;1244;63201;-73
2022/07/25 04:53:56;;;;;;;7.00;4.20;;;;;;;19.42;70.10;101129.03;107729;1244;58984;-75
2022/07/25 04:56:25;;;;;;;7.00;3.80;;;;;;;19.51;70.15;101125.63;107965;1244;61205;-75
2022/07/25 04:58:53;;;;;;;5.50;4.10;;;;;;;19.61;69.42;101127.12;107910;1244;74036;-75
2022/07/25 05:01:22;;;;;;;5.40;4.20;;;;;;;19.64;68.96;101126.15;107858;1244;61236;-74
2022/07/25 05:03:51;;;;;;;5.70;4.00;;;;;;;19.66;68.85;101127.84;107796;1244;59095;-73
2022/07/25 05:06:20;;;;;;;6.80;3.80;;;;;;;19.70;68.49;101125.27;107425;1244;63106;-74
2022/07/25 05:08:49;;;;;;;5.30;3.50;;;;;;;19.79;67.89;101119.91;107474;1244;60090;-75
2022/07/25 05:11:18;;;;;;;5.50;3.60;;;;;;;19.83;67.57;101122.36;107760;1244;59527;-76
2022/07/25 05:13:47;;;;;;;6.70;4.00;;;;;;;19.88;67.77;101117.27;107880;1247;64105;-75
2022/07/25 05:16:16;;;;;;;5.00;3.50;;;;;;;19.99;67.23;101124.56;107689;1244;71339;-76
2022/07/25 05:18:45;;;;;;;4.90;3.20;;;;;;;20.03;66.77;101120.98;107784;1244;59721;-75
2022/07/25 05:21:14;;;;;;;6.00;3.30;;;;;;;20.05;66.47;101118.39;107649;1243;72267;-78
2022/07/25 05:23:43;;;;;;;7.00;3.60;;;;;;;20.17;66.46;101120.16;107941;1244;59628;-77
2022/07/25 05:26:12;;;;;;;7.00;3.20;;;;;;;20.24;65.87;101118.08;108010;1244;61185;-75
2022/07/25 05:28:40;;;;;;;5.40;3.10;;;;;;;20.29;65.65;101119.81;107805;1244;64271;-75
2022/07/25 05:31:09;;;;;;;6.00;3.10;;;;;;;20.34;65.15;101123.50;107775;1244;61646;-75
2022/07/25 05:33:38;;;;;;;5.00;2.90;;;;;;;20.37;64.05;101120.82;107974;1244;59927;-77
2022/07/25 05:36:07;;;;;;;4.50;2.50;;;;;;;20.45;63.53;101119.21;107952;1244;63243;-78
2022/07/25 05:38:36;;;;;;;6.30;2.70;;;;;;;20.46;63.27;101121.20;107926;1244;59743;-76
2022/07/25 05:41:05;;;;;;;4.10;2.50;;;;;;;20.48;62.61;101123.09;107960;1244;59478;-77
2022/07/25 05:43:34;;;;;;;4.30;3.00;;;;;;;20.52;62.62;101123.30;107761;1244;73495;-75
2022/07/25 05:46:04;;;;;;;4.70;2.90;;;;;;;20.60;62.16;101119.83;107936;1244;72817;-74
2022/07/25 05:48:33;;;;;;;3.80;2.50;;;;;;;20.63;61.74;101116.28;108039;1244;59927;-74
2022/07/25 05:51:02;;;;;;;4.30;2.80;;;;;;;20.70;61.96;101111.00;108122;1244;72439;-77
2022/07/25 05:53:31;;;;;;;4.90;2.90;;;;;;;20.76;61.87;101108.66;108046;1246;59590;-77
2022/07/25 05:56:00;;;;;;;4.90;2.30;;;;;;;20.85;61.54;101101.13;107966;1245;61271;-75
2022/07/25 05:58:29;;;;;;;3.60;2.20;;;;;;;20.90;60.66;101104.00;107839;1244;75966;-79
2022/07/25 06:00:58;;;;;;;5.30;2.30;;;;;;;20.96;59.95;101103.49;107875;1244;71929;-76
2022/07/25 06:03:26;;;;;;;4.40;2.40;;;;;;;20.98;60.04;101104.11;107963;1244;71555;-78
2022/07/25 06:05:55;;;;;;;4.20;2.60;;;;;;;21.02;60.10;101096.94;107997;1244;74309;-74
2022/07/25 06:08:27;;;;;;;5.10;3.00;;;;;;;21.14;60.37;101100.40;107782;1245;59542;-73
2022/07/25 06:10:57;;;;;;;6.10;2.70;;;;;;;21.23;60.42;101098.67;107889;1244;57912;-74
2022/07/25 06:13:27;;;;;;;6.30;3.10;;;;;;;21.30;60.61;101094.89;107768;1244;74484;-75
2022/07/25 06:15:56;;;;;;;4.70;2.50;;;;;;;21.40;60.58;101096.32;107963;1244;62122;-75
2022/07/25 06:18:25;;;;;;;3.90;2.70;;;;;;;21.54;59.71;101094.08;107978;1244;59938;-75
2022/07/25 06:20:54;;;;;;;4.80;2.90;;;;;;;21.61;58.47;101089.83;107848;1244;63252;-76
2022/07/25 06:23:23;;;;;;;3.70;2.40;;;;;;;21.65;58.32;101091.89;107783;1244;58669;-74
2022/07/25 06:25:55;;;;;;;4.60;2.60;;;;;;;21.70;58.64;101087.59;107648;1244;59945;-74
2022/07/25 06:28:24;;;;;;;7.70;2.90;;;;;;;21.77;58.57;101083.83;107977;1244;63565;-77
2022/07/25 06:30:53;;;;;;;4.20;2.10;;;;;;;21.86;57.77;101085.07;107865;1244;61529;-78
2022/07/25 06:33:22;;;;;;;3.70;1.90;;;;;;;21.84;56.80;101090.03;107935;1244;69173;-77
2022/07/25 06:35:51;;;;;;;2.90;2.00;;;;;;;21.90;56.92;101087.48;107823;1244;62483;-75
2022/07/25 06:38:20;;;;;;;2.70;1.70;;;;;;;21.95;56.02;101085.21;107940;1244;59706;-75
2022/07/25 06:40:49;;;;;;;4.40;2.00;;;;;;;22.00;55.75;101080.98;108005;1244;58953;-76
2022/07/25 06:43:17;;;;;;;4.30;2.00;;;;;;;22.12;55.52;101077.31;108024;1244;75114;-80
2022/07/25 06:45:46;;;;;;;5.70;2.00;;;;;;;22.19;54.56;101082.84;107725;1247;62023;-78
2022/07/25 06:48:16;;;;;;;2.90;1.90;;;;;;;22.21;54.38;101085.96;107934;1244;69914;-77
2022/07/25 06:50:45;;;;;;;3.00;1.70;;;;;;;22.24;54.18;101087.48;107781;1245;64016;-77
2022/07/25 06:53:14;;;;;;;2.50;1.80;;;;;;;22.27;54.42;101077.86;107988;1244;59614;-74
2022/07/25 06:55:44;;;;;;;2.60;1.70;;;;;;;22.34;53.87;101074.75;107893;1244;59511;-77
2022/07/25 06:58:13;;;;;;;2.10;1.50;;;;;;;22.42;53.43;101073.65;107989;1244;73875;-77
2022/07/25 07:00:41;;;;;;;5.90;1.90;;;;;;;22.43;53.30;101080.23;107874;1244;71782;-75
2022/07/25 07:03:10;;;;;;;2.00;1.50;;;;;;;22.55;52.75;101081.20;107903;1244;61859;-75
2022/07/25 07:05:40;;;;;;;3.00;1.80;;;;;;;22.53;52.99;101081.54;107904;1244;63235;-76
2022/07/25 07:08:08;;;;;;;5.80;2.10;;;;;;;22.63;52.31;101078.83;107873;1244;61352;-76
2022/07/25 07:10:39;;;;;;;3.00;1.90;;;;;;;22.70;52.54;101077.02;107979;1244;59241;-76
2022/07/25 07:13:18;;;;;;;4.90;2.00;;;;;;;22.83;52.05;101083.36;108095;1244;71948;-78
2022/07/25 07:15:51;;;;;;;3.40;1.90;;;;;;;22.89;51.86;101082.41;107995;1244;62152;-77
2022/07/25 07:18:21;;;;;;;3.40;2.00;;;;;;;22.91;51.65;101077.73;108039;1244;59194;-76
2022/07/25 07:20:51;;;;;;;3.50;1.40;;;;;;;22.97;51.39;101076.34;107986;1244;62710;-79
2022/07/25 07:23:20;;;;;;;2.00;1.60;;;;;;;23.07;50.75;101082.77;107702;1244;60702;-78
2022/07/25 07:25:48;;;;;;;2.60;1.60;;;;;;;23.03;50.56;101078.48;108068;1244;61819;-74
2022/07/25 07:28:18;;;;;;;2.00;1.60;;;;;;;23.06;50.31;101082.39;107893;1244;64541;-77
2022/07/25 07:30:47;;;;;;;2.20;1.70;;;;;;;23.09;50.24;101080.45;107526;1247;61519;-78
2022/07/25 07:33:37;;;;;;;5.20;2.00;;;;;;;23.14;50.10;101075.40;108040;1244;69114;-76
2022/07/25 07:36:06;;;;;;;3.60;1.60;;;;;;;23.21;49.99;101076.68;108044;1244;64448;-77
2022/07/25 07:38:35;;;;;;;2.00;1.60;;;;;;;23.31;49.44;101077.66;108000;1244;61459;-78
2022/07/25 07:41:04;;;;;;;3.30;1.90;;;;;;;23.41;48.95;101072.14;107938;1244;61105;-78
2022/07/25 07:43:33;;;;;;;2.00;1.60;;;;;;;23.51;48.80;101071.69;107944;1244;74164;-79
2022/07/25 07:46:02;;;;;;;3.80;1.80;;;;;;;23.70;48.09;101079.61;107946;1244;62778;-78
2022/07/25 07:48:33;;;;;;;3.60;1.80;;;;;;;23.75;48.40;101074.36;107895;1244;70554;-78
2022/07/25 07:51:02;;;;;;;3.00;1.50;;;;;;;23.92;47.86;101080.23;107999;1244;73597;-74
2022/07/25 07:56:19;;;;;;;2.40;1.50;;;;;;;24.21;47.19;101067.48;108037;1244;58740;-77
2022/07/25 07:58:48;;;;;;;2.60;1.60;;;;;;;24.27;45.53;101074.11;107614;1244;73615;-75
2022/07/25 08:01:16;;;;;;;3.90;1.80;;;;;;;24.25;45.98;101077.10;107981;1244;72625;-80
2022/07/25 08:03:46;;;;;;;2.50;1.30;;;;;;;24.27;46.28;101075.10;108077;1244;61847;-75
2022/07/25 08:06:14;;;;;;;3.90;1.50;;;;;;;24.42;45.50;101080.40;107921;1245;74178;-76
2022/07/25 08:08:43;;;;;;;5.00;1.80;;;;;;;24.31;44.70;101072.08;108002;1244;61978;-79
2022/07/25 08:11:12;;;;;;;1.90;1.40;;;;;;;24.15;45.10;101074.74;107509;1244;61967;-76
2022/07/25 08:13:41;;;;;;;2.30;1.30;;;;;;;24.11;45.16;101074.77;108073;1244;64452;-79
2022/07/25 08:16:12;;;;;;;2.60;1.40;;;;;;;24.00;45.25;101072.34;108033;1244;61641;-79
2022/07/25 08:18:41;;;;;;;2.00;1.40;;;;;;;23.99;45.15;101067.53;107776;1245;59175;-75
2022/07/25 08:21:10;;;;;;;4.00;1.60;;;;;;;24.16;44.49;101067.04;108098;1244;62409;-78
2022/07/25 08:23:39;;;;;;;6.30;1.40;;;;;;;24.26;44.04;101068.23;107978;1244;58740;-78
2022/07/25 08:26:08;;;;;;;3.50;1.40;;;;;;;24.25;43.60;101062.11;107931;1244;61242;-80
2022/07/25 08:28:36;;;;;;;2.70;1.50;;;;;;;24.16;44.23;101062.31;107992;1244;74208;-78
2022/07/25 08:31:06;;;;;;;2.70;1.40;;;;;;;24.30;44.19;101056.94;107998;1244;61360;-77
2022/07/25 08:33:35;;;;;;;6.40;1.70;;;;;;;24.45;43.99;101058.77;107831;1244;70575;-77
2022/07/25 08:36:05;;;;;;;2.80;1.60;;;;;;;24.53;42.94;101061.23;107768;1242;74329;-78
2022/07/25 08:38:34;;;;;;;1.70;1.30;;;;;;;24.75;42.70;101051.23;107532;1244;61978;-78
2022/07/25 08:41:03;;;;;;;3.00;1.40;;;;;;;24.87;41.01;101052.91;108063;1243;61094;-75
2022/07/25 08:43:34;;;;;;;2.40;1.30;;;;;;;24.82;41.11;101053.65;107641;1244;64109;-79
2022/07/25 08:46:05;;;;;;;5.00;1.60;;;;;;;24.92;41.55;101052.80;107809;1245;61555;-77
2022/07/25 08:48:35;;;;;;;3.80;1.40;;;;;;;25.07;41.45;101046.96;108049;1244;69690;-78
2022/07/25 08:51:04;;;;;;;2.80;1.60;;;;;;;25.08;41.46;101048.95;108120;1244;72795;-75
2022/07/25 08:53:35;;;;;;;6.10;1.80;;;;;;;25.11;41.67;101052.27;107934;1244;59490;-74
2022/07/25 08:56:06;;;;;;;7.40;2.00;;;;;;;25.01;41.21;101040.33;107927;1244;58840;-79
2022/07/25 08:58:47;;;;;;;2.20;1.30;;;;;;;24.82;41.27;101033.95;108011;1244;63789;-75
2022/07/25 09:01:16;;;;;;;1.90;1.30;;;;;;;24.72;41.16;101036.66;107571;1244;71455;-79
2022/07/25 09:03:45;;;;;;;3.30;1.50;;;;;;;24.56;41.64;101041.02;107817;1244;59632;-80
2022/07/25 09:06:21;;;;;;;3.10;1.60;;;;;;;24.50;42.02;101036.55;107848;1244;73898;-77
2022/07/25 09:08:59;;;;;;;2.80;1.30;;;;;;;24.53;42.23;101035.78;107739;1244;61748;-74
2022/07/25 09:11:31;;;;;;;2.30;1.50;;;;;;;24.82;41.77;101029.65;108048;1244;60629;-78
2022/07/25 09:14:07;;;;;;;2.80;1.40;;;;;;;25.22;40.58;101026.38;107802;1244;74225;-78
2022/07/25 09:16:42;;;;;;;3.60;1.70;;;;;;;25.36;40.25;101030.81;107984;1244;71618;-78
2022/07/25 09:19:21;;;;;;;3.80;1.50;;;;;;;25.23;40.54;101027.98;108122;1244;71098;-77
2022/07/25 09:22:02;;;;;;;2.90;1.60;;;;;;;25.41;40.60;101028.23;108029;1244;63703;-73
2022/07/25 09:24:33;;;;;;;2.80;1.50;;;;;;;25.57;39.77;101027.45;107810;1244;59668;-76
2022/07/25 09:27:09;;;;;;;4.20;1.60;;;;;;;25.76;39.25;101032.66;107830;1244;61387;-74
2022/07/25 09:29:44;;;;;;;3.30;1.60;;;;;;;25.88;38.65;101028.70;107835;1244;62937;-77
2022/07/25 09:32:18;;;;;;;4.00;1.60;;;;;;;25.95;38.72;101016.36;108020;1244;70856;-76
2022/07/25 09:34:49;;;;;;;2.40;1.60;;;;;;;26.26;38.02;101019.66;107622;1244;70569;-76
2022/07/25 09:37:25;;;;;;;2.90;2.00;;;;;;;26.12;38.15;101023.70;107815;1244;63055;-76
2022/07/25 09:39:55;;;;;;;2.40;1.50;;;;;;;25.96;38.84;101018.09;107640;1244;60462;-77
2022/07/25 09:42:27;;;;;;;2.10;1.50;;;;;;;25.95;37.98;101008.13;107733;1244;60915;-78
2022/07/25 09:45:13;;;;;;;;;;;;;;;25.98;38.26;101007.84;108024;1244;65137;-76
2022/07/25 09:48:04;;;;;;;2.00;1.50;;;;;;;26.23;37.49;101016.34;107989;1244;61630;-76
2022/07/25 09:50:33;;;;;;;2.50;1.50;;;;;;;26.35;36.99;101006.69;107881;1245;59230;-78
2022/07/25 09:53:02;;;;;;;2.90;1.40;;;;;;;26.34;36.88;101012.88;107913;1244;62519;-78
2022/07/25 09:55:32;;;;;;;2.80;1.50;;;;;;;26.36;36.93;101011.20;107825;1244;60441;-77
2022/07/25 09:58:02;;;;;;;2.00;1.60;;;;;;;26.27;37.20;101002.75;107977;1244;60659;-77
2022/07/25 10:00:31;;;;;;;2.10;1.60;;;;;;;26.23;37.66;101006.37;108018;1244;64359;-80
2022/07/25 10:03:19;;;;;;;2.90;1.70;;;;;;;26.27;37.56;101007.76;107864;1245;62493;-74
2022/07/25 10:06:03;;;;;;;5.80;1.90;;;;;;;26.42;36.71;101005.52;107822;1245;60092;-79
2022/07/25 10:08:38;;;;;;;3.40;1.60;;;;;;;26.39;35.24;101007.73;107875;1244;73873;-79
2022/07/25 10:11:26;;;;;;;3.00;1.60;;;;;;;26.75;35.41;100999.11;107786;1246;59559;-82
2022/07/25 10:13:55;;;;;;;4.40;1.70;;;;;;;26.82;35.49;101007.13;108125;1244;59445;-78
2022/07/25 10:16:26;;;;;;;2.00;1.60;;;;;;;26.93;36.54;101001.09;107901;1244;73762;-79
2022/07/25 10:18:57;;;;;;;3.10;1.70;;;;;;;26.93;36.74;100996.00;108140;1244;61583;-74
2022/07/25 10:21:28;;;;;;;4.00;1.60;;;;;;;27.11;35.86;100995.26;107421;1243;71111;-78
2022/07/25 10:24:09;;;;;;;2.00;1.40;;;;;;;27.21;35.76;100995.43;108065;1244;63405;-79
2022/07/25 10:26:51;;;;;;;3.90;1.60;;;;;;;27.48;35.04;100999.38;108067;1244;61013;-78
2022/07/25 10:29:19;;;;;;;2.50;1.60;;;;;;;27.55;33.80;100995.41;107953;1244;60959;-77
2022/07/25 10:31:48;;;;;;;6.80;1.70;;;;;;;27.48;34.31;100989.55;107978;1244;74946;-75
2022/07/25 10:34:30;;;;;;;4.10;1.70;;;;;;;27.43;34.25;100984.09;107978;1245;61878;-77
2022/07/25 10:37:17;;;;;;;3.40;1.60;;;;;;;27.87;34.31;100982.49;108090;1243;71105;-78
2022/07/25 10:39:49;;;;;;;1.90;1.60;;;;;;;27.92;34.16;100983.61;107796;1246;63142;-77
2022/07/25 10:42:23;;;;;;;2.50;1.50;;;;;;;27.95;34.66;100978.19;107779;1244;59725;-76
2022/07/25 10:44:56;;;;;;;3.50;1.60;;;;;;;28.47;33.55;100975.16;107662;1244;61295;-77
2022/07/25 10:47:27;;;;;;;3.50;1.50;;;;;;;28.38;32.99;100981.20;107725;1244;64224;-77
2022/07/25 10:49:58;;;;;;;4.50;1.50;;;;;;;28.15;33.05;100975.76;107579;1244;72116;-77
2022/07/25 10:52:59;;;;;;;1.90;1.30;;;;;;;27.77;33.47;100978.59;108058;1244;60373;-76
2022/07/25 10:55:28;;;;;;;3.40;1.70;;;;;;;27.78;33.54;100976.13;108051;1243;63085;-75
2022/07/25 10:58:05;;;;;;;4.00;1.40;;;;;;;27.85;33.13;100961.91;108046;1244;60327;-78
2022/07/25 11:00:50;;;;;;;2.00;1.50;;;;;;;28.22;32.79;100966.31;108017;1244;60875;-77
2022/07/25 11:03:20;;;;;;;6.80;1.50;;;;;;;28.26;31.96;100957.14;107996;1244;63923;-78
2022/07/25 11:05:53;;;;;;;2.70;1.60;;;;;;;28.26;32.37;100948.30;107844;1244;72208;-79
2022/07/25 11:08:34;;;;;;;2.50;1.50;;;;;;;28.67;32.11;100938.51;108030;1244;69957;-77
2022/07/25 11:11:03;;;;;;;2.40;1.70;;;;;;;28.99;31.45;100943.92;108107;1243;62851;-77
2022/07/25 11:13:40;;;;;;;2.80;1.50;;;;;;;29.17;31.04;100941.89;108158;1244;57930;-74
2022/07/25 11:16:10;;;;;;;2.00;1.60;;;;;;;29.14;30.23;100947.13;107782;1245;60624;-80
2022/07/25 11:18:41;;;;;;;2.60;1.60;;;;;;;29.15;30.10;100930.43;107801;1244;74405;-78
2022/07/25 11:21:10;;;;;;;3.20;1.70;;;;;;;29.34;30.44;100939.89;107819;1244;71110;-80
2022/07/25 11:23:39;;;;;;;3.10;1.60;;;;;;;29.63;29.81;100928.13;108029;1244;70907;-78
2022/07/25 11:26:11;;;;;;;7.80;2.70;;;;;;;29.71;29.54;100930.70;107693;1245;63299;-78
2022/07/25 11:28:45;;;;;;;5.30;2.20;;;;;;;29.66;29.61;100926.34;107791;1245;59601;-76
2022/07/25 11:31:16;;;;;;;3.80;1.50;;;;;;;29.52;29.83;100925.22;108088;1244;60355;-76
2022/07/25 11:33:48;;;;;;;;;;;;;;;29.88;29.77;100920.67;107989;1244;75242;-79
2022/07/25 11:36:18;;;;;;;4.00;2.20;;;;;;;29.94;29.90;100920.96;107888;1244;63649;-78
2022/07/25 11:38:48;;;;;;;3.10;1.60;;;;;;;30.10;29.55;100923.63;107795;1244;60335;-76